Trans Exeter — 9HA2572 — position and weather

sailwx.info

Track history (hours):
 
Tides and Currents Weather Stations Pressure Air Temp Water Temp Dewpoint Dewpoint Depression Visibility Wind Speed Wind Dir Waves Ship Positions

Trans Exeter

Last reported at 2017-Apr-29 20:49 UTC. Time now 2017-Apr-30 14:54 UTC.
Position N 54°03' E 007°58'.

Length 118 m; draft 6 m.

Type: Ship (hazmat cat C). MMSI: 248908000.

Date/timePositionNaut miles runAvg speedWind from/ knotsBaromVisibWave heightAir tempDewpointWater temp
2017-Apr-29 20:49N 54°03' E 007°58'414.1
2017-Apr-29 20:30N 54°01' E 008°05'612.5
2017-Apr-29 20:00N 54°00' E 008°15'714.1
2017-Apr-29 19:29N 53°59' E 008°27'715.1
2017-Apr-29 19:00N 53°57' E 008°39'815.4
2017-Apr-29 18:31N 53°51' E 008°47'815.3
2017-Apr-29 18:01N 53°51' E 008°60'713.7
2017-Apr-29 17:30N 53°53' E 009°11'611.8
2017-Apr-29 17:00N 53°51' E 009°20'611.1
2017-Apr-29 16:30N 53°46' E 009°24'510.3
2017-Apr-29 16:00N 53°42' E 009°30'3 5.1
2017-Apr-29 15:28N 53°39' E 009°31'0 0.0
2017-Apr-29 14:58N 53°39' E 009°31'0 0.0
2017-Apr-29 14:22N 53°39' E 009°31'0 0.0
2017-Apr-29 13:28N 53°39' E 009°31'0 0.0
2017-Apr-29 12:52N 53°39' E 009°31'0 0.0
2017-Apr-29 12:28N 53°39' E 009°31'0 0.0
2017-Apr-29 11:58N 53°39' E 009°31'0 0.0
2017-Apr-29 11:28N 53°39' E 009°31'0 0.0
2017-Apr-29 10:58N 53°39' E 009°31'0 0.0
2017-Apr-29 10:28N 53°39' E 009°31'0 0.0
2017-Apr-29 09:58N 53°39' E 009°31'0 0.0
2017-Apr-29 09:28N 53°39' E 009°31'0 0.0
2017-Apr-29 08:58N 53°39' E 009°31'0 0.0
2017-Apr-29 08:28N 53°39' E 009°31'0 0.0
2017-Apr-29 07:52N 53°39' E 009°31'0 0.0
2017-Apr-29 07:30N 53°39' E 009°31'0 0.0
2017-Apr-29 07:00N 53°39' E 009°31'0 0.0
2017-Apr-29 06:30N 53°39' E 009°31'0 0.0
2017-Apr-29 06:01N 53°39' E 009°31'0 0.0
2017-Apr-29 05:30N 53°39' E 009°31'0 0.0
2017-Apr-29 05:00N 53°39' E 009°31'0 0.0
2017-Apr-29 04:30N 53°39' E 009°31'0 0.0
2017-Apr-29 04:01N 53°39' E 009°31'0 0.0
2017-Apr-29 03:30N 53°39' E 009°31'0 0.0
2017-Apr-29 03:00N 53°39' E 009°31'0 0.0
2017-Apr-29 02:30N 53°39' E 009°31'0 0.0
2017-Apr-29 02:00N 53°39' E 009°31'0 0.0
2017-Apr-29 01:31N 53°39' E 009°31'0 0.0
2017-Apr-29 01:00N 53°39' E 009°31'0 0.0
2017-Apr-29 00:31N 53°39' E 009°31'0 0.0
2017-Apr-29 00:00N 53°39' E 009°31'0 0.0
2017-Apr-28 23:31N 53°39' E 009°31'0 0.2
2017-Apr-28 23:00N 53°39' E 009°31'1 2.8
2017-Apr-28 22:29N 53°41' E 009°30'0 0.0
2017-Apr-28 22:00N 53°41' E 009°30'0 0.0
2017-Apr-28 21:29N 53°41' E 009°30'0 0.0
2017-Apr-28 20:59N 53°41' E 009°30'0 0.0
2017-Apr-28 20:29N 53°41' E 009°30'0 0.0
2017-Apr-28 20:00N 53°41' E 009°30'0 0.1
2017-Apr-28 19:29N 53°41' E 009°30'4 7.3
2017-Apr-28 19:01N 53°44' E 009°27'510.2
2017-Apr-28 18:30N 53°48' E 009°23'510.3
2017-Apr-28 18:00N 53°52' E 009°17'510.1
2017-Apr-28 17:30N 53°53' E 009°08'4 8.5
2017-Apr-28 17:00N 53°51' E 009°02'511.0
2017-Apr-28 16:30N 53°50' E 008°52'510.2
2017-Apr-28 16:00N 53°52' E 008°44'510.7
2017-Apr-28 15:30N 53°56' E 008°39'611.7
2017-Apr-28 15:00N 53°58' E 008°30'1211.6
2017-Apr-28 14:00N 53°59' E 008°10'3 5.9
2017-Apr-28 13:30N 54°01' E 008°06'3 6.5
2017-Apr-28 12:59N 54°02' E 008°12'0 0.1
2017-Apr-28 12:23N 54°02' E 008°12'0 0.0
2017-Apr-28 11:59N 54°02' E 008°12'0 0.0
2017-Apr-28 11:29N 54°02' E 008°12'0 0.0
2017-Apr-28 10:53N 54°02' E 008°12'0 0.0
2017-Apr-28 10:02N 54°02' E 008°12'0 0.1
2017-Apr-28 09:59N 54°02' E 008°12'0 0.0
2017-Apr-28 09:29N 54°02' E 008°12'0 0.0
2017-Apr-28 08:55N 54°02' E 008°12'0 0.0
2017-Apr-28 08:25N 54°02' E 008°12'0 0.0
2017-Apr-28 07:58N 54°02' E 008°12'0 0.0
2017-Apr-28 07:28N 54°02' E 008°12'0 0.2
2017-Apr-28 06:58N 54°02' E 008°12'0 0.1
2017-Apr-28 06:25N 54°02' E 008°12'0 0.0
2017-Apr-28 05:58N 54°02' E 008°12'0 0.0
2017-Apr-28 05:28N 54°02' E 008°11'0 0.0
2017-Apr-28 04:37N 54°02' E 008°11'0 0.0
2017-Apr-28 04:19N 54°02' E 008°11'0 0.1
2017-Apr-28 02:07N 54°02' E 008°12'0 0.1
2017-Apr-28 01:46N 54°02' E 008°12'0 0.1
2017-Apr-28 01:10N 54°02' E 008°12'0 0.0
2017-Apr-28 00:58N 54°02' E 008°12'0 0.0
2017-Apr-28 00:28N 54°02' E 008°12'0 0.0
2017-Apr-27 23:58N 54°02' E 008°12'0 0.0
2017-Apr-27 23:10N 54°02' E 008°12'0 0.0
2017-Apr-27 22:43N 54°02' E 008°12'0 0.0
2017-Apr-27 22:19N 54°02' E 008°12'0 0.0
2017-Apr-27 21:55N 54°02' E 008°12'0 0.0
2017-Apr-27 21:25N 54°02' E 008°12'0 0.5
2017-Apr-27 20:50N 54°02' E 008°11'2 6.1
2017-Apr-27 20:29N 54°02' E 008°08'0 0.1
2017-Apr-27 16:28N 54°02' E 008°07'0 0.1
2017-Apr-27 15:55N 54°02' E 008°07'180 9.9
2017-Apr-26 21:47N 52°31' E 003°47'413.5
2017-Apr-26 21:30N 52°31' E 003°54'713.9
2017-Apr-26 21:00N 52°31' E 004°05'713.8
2017-Apr-26 20:30N 52°31' E 004°16'612.8
2017-Apr-26 20:00N 52°29' E 004°26'510.5
2017-Apr-26 19:31N 52°28' E 004°35'1 2.2
2017-Apr-26 19:00N 52°28' E 004°36'3 6.0
2017-Apr-26 18:30N 52°27' E 004°41'5 9.6
2017-Apr-26 18:01N 52°25' E 004°48'2 4.8
2017-Apr-26 17:30N 52°24' E 004°52'0 0.0
2017-Apr-26 16:57N 52°24' E 004°52'0 0.0
2017-Apr-26 16:30N 52°24' E 004°52'0 0.0
2017-Apr-26 16:00N 52°24' E 004°52'0 0.0
2017-Apr-26 15:30N 52°24' E 004°52'0 0.0
2017-Apr-26 15:00N 52°24' E 004°52'0 0.0
2017-Apr-26 14:31N 52°24' E 004°52'0 0.0
2017-Apr-26 13:30N 52°24' E 004°52'0 0.0
2017-Apr-26 13:00N 52°24' E 004°52'0 0.0
2017-Apr-26 12:30N 52°24' E 004°52'0 0.0
2017-Apr-26 12:00N 52°24' E 004°52'0 0.0
2017-Apr-26 11:31N 52°24' E 004°52'0 0.0
2017-Apr-26 11:01N 52°24' E 004°52'0 0.0
2017-Apr-26 10:30N 52°24' E 004°52'0 0.0
2017-Apr-26 10:00N 52°24' E 004°52'0 0.0
2017-Apr-26 09:30N 52°24' E 004°52'0 0.0
2017-Apr-26 09:01N 52°24' E 004°52'0 0.0
2017-Apr-26 08:30N 52°24' E 004°52'0 0.0
2017-Apr-26 08:01N 52°24' E 004°52'0 0.0
2017-Apr-26 07:30N 52°24' E 004°52'0 0.0
2017-Apr-26 07:00N 52°24' E 004°52'0 0.0
2017-Apr-26 06:30N 52°24' E 004°52'0 0.0
2017-Apr-26 06:00N 52°24' E 004°52'0 0.0
2017-Apr-26 05:30N 52°24' E 004°52'0 0.0
2017-Apr-26 05:00N 52°24' E 004°52'0 0.0
2017-Apr-26 04:31N 52°24' E 004°52'0 0.0
2017-Apr-26 04:01N 52°24' E 004°52'1 1.4
2017-Apr-26 03:30N 52°25' E 004°52'4 8.1
2017-Apr-26 03:01N 52°26' E 004°45'5 9.1
2017-Apr-26 02:30N 52°28' E 004°38'1 2.9
2017-Apr-26 02:00N 52°28' E 004°36'1 1.7
2017-Apr-26 01:30N 52°28' E 004°35'3 5.7
2017-Apr-26 01:00N 52°28' E 004°30'4 7.8
2017-Apr-26 00:30N 52°29' E 004°24'510.1
2017-Apr-26 00:00N 52°29' E 004°15'712.8
2017-Apr-25 23:30N 52°28' E 004°05'712.9
2017-Apr-25 22:58N 52°26' E 003°54'7211.8
2017-Apr-25 16:50N 51°39' E 002°26'613.2
2017-Apr-25 16:24N 51°34' E 002°19'513.7
2017-Apr-25 16:00N 51°30' E 002°13'714.0
2017-Apr-25 15:30N 51°25' E 002°06'713.7
2017-Apr-25 15:00N 51°18' E 002°06'1313.5
2017-Apr-25 14:01N 51°09' E 001°50'714.6
2017-Apr-25 13:31N 51°04' E 001°42'815.2
2017-Apr-25 13:01N 50°59' E 001°33'6014.0
2017-Apr-25 08:43N 50°23' E 000°17'515.7
2017-Apr-25 08:24N 50°21' E 000°09'616.0
2017-Apr-25 08:00N 50°20' W 000°00'128 4.5
2017-Apr-24 03:40N 48°38' W 002°02'4 8.6
2017-Apr-24 03:13N 48°41' W 002°06'1 5.5
2017-Apr-24 02:57N 48°43' W 002°06'0 0.1
2017-Apr-24 02:27N 48°43' W 002°06'0 0.0
2017-Apr-24 02:00N 48°43' W 002°06'0 0.0
2017-Apr-24 01:30N 48°43' W 002°06'0 0.0
2017-Apr-24 00:51N 48°43' W 002°06'0 0.2
2017-Apr-24 00:15N 48°43' W 002°06'0 0.2
2017-Apr-23 23:51N 48°43' W 002°06'0 0.0
2017-Apr-23 22:48N 48°43' W 002°06'13 3.9
2017-Apr-23 19:29N 48°48' W 002°24'1412.1
2017-Apr-23 18:20N 48°60' W 002°35'412.5
2017-Apr-23 18:00N 49°03' W 002°38'712.7
2017-Apr-23 17:26N 49°09' W 002°44'613.7
2017-Apr-23 17:00N 49°10' W 002°53'714.1
2017-Apr-23 16:31N 49°08' W 003°03'714.5
2017-Apr-23 16:00N 49°07' W 003°14'714.8
2017-Apr-23 15:30N 49°07' W 003°26'815.0
2017-Apr-23 14:58N 49°06' W 003°38'1414.8
2017-Apr-23 14:01N 49°04' W 003°59'714.5
2017-Apr-23 13:31N 49°03' W 004°10'714.4
2017-Apr-23 13:00N 49°02' W 004°21'714.2
2017-Apr-23 12:30N 49°01' W 004°32'2813.6
2017-Apr-23 10:29N 48°53' W 005°12'60412.3
2017-Apr-21 09:17N 39°24' W 009°56'514.0
2017-Apr-21 08:58N 39°20' W 009°56'614.1
2017-Apr-21 08:30N 39°13' W 009°56'713.9
2017-Apr-21 08:00N 39°06' W 009°56'714.0
2017-Apr-21 07:30N 38°59' W 009°56'714.1
2017-Apr-21 07:00N 38°52' W 009°56'714.3
2017-Apr-21 06:30N 38°45' W 009°57'714.1
2017-Apr-21 06:00N 38°38' W 009°55'714.0
2017-Apr-21 05:30N 38°31' W 009°53'714.3
2017-Apr-21 05:01N 38°24' W 009°52'714.1
2017-Apr-21 04:30N 38°17' W 009°50'24211.6
2017-Apr-20 07:40N 35°58' W 005°41'314.1
2017-Apr-20 07:29N 35°58' W 005°38'613.0
2017-Apr-20 07:00N 35°59' W 005°31'510.3
2017-Apr-20 06:30N 36°01' W 005°25'3 6.2
2017-Apr-20 06:01N 36°02' W 005°21'2 4.2
2017-Apr-20 05:30N 36°03' W 005°19'2 4.5
2017-Apr-20 05:00N 36°03' W 005°16'4 7.6
2017-Apr-20 04:29N 36°03' W 005°11'  
Track history (hours):
 
Tides and Currents Weather Stations Pressure Air Temp Water Temp Dewpoint Dewpoint Depression Visibility Wind Speed Wind Dir Waves Ship Positions

Trans Exeter

Last reported at 2017-Apr-29 20:49 UTC. Time now 2017-Apr-30 14:54 UTC.
Position N 54°03' E 007°58'.

Length 118 m; draft 6 m.

Type: Ship (hazmat cat C). MMSI: 248908000.

Date/timePositionNaut miles runAvg speedWind from/ knotsBaromVisibWave heightAir tempDewpointWater temp
2017-Apr-29 20:49N 54°03' E 007°58'414.1
2017-Apr-29 20:30N 54°01' E 008°05'612.5
2017-Apr-29 20:00N 54°00' E 008°15'714.1
2017-Apr-29 19:29N 53°59' E 008°27'715.1
2017-Apr-29 19:00N 53°57' E 008°39'815.4
2017-Apr-29 18:31N 53°51' E 008°47'815.3
2017-Apr-29 18:01N 53°51' E 008°60'713.7
2017-Apr-29 17:30N 53°53' E 009°11'611.8
2017-Apr-29 17:00N 53°51' E 009°20'611.1
2017-Apr-29 16:30N 53°46' E 009°24'510.3
2017-Apr-29 16:00N 53°42' E 009°30'3 5.1
2017-Apr-29 15:28N 53°39' E 009°31'0 0.0
2017-Apr-29 14:58N 53°39' E 009°31'0 0.0
2017-Apr-29 14:22N 53°39' E 009°31'0 0.0
2017-Apr-29 13:28N 53°39' E 009°31'0 0.0
2017-Apr-29 12:52N 53°39' E 009°31'0 0.0
2017-Apr-29 12:28N 53°39' E 009°31'0 0.0
2017-Apr-29 11:58N 53°39' E 009°31'0 0.0
2017-Apr-29 11:28N 53°39' E 009°31'0 0.0
2017-Apr-29 10:58N 53°39' E 009°31'0 0.0
2017-Apr-29 10:28N 53°39' E 009°31'0 0.0
2017-Apr-29 09:58N 53°39' E 009°31'0 0.0
2017-Apr-29 09:28N 53°39' E 009°31'0 0.0
2017-Apr-29 08:58N 53°39' E 009°31'0 0.0
2017-Apr-29 08:28N 53°39' E 009°31'0 0.0
2017-Apr-29 07:52N 53°39' E 009°31'0 0.0
2017-Apr-29 07:30N 53°39' E 009°31'0 0.0
2017-Apr-29 07:00N 53°39' E 009°31'0 0.0
2017-Apr-29 06:30N 53°39' E 009°31'0 0.0
2017-Apr-29 06:01N 53°39' E 009°31'0 0.0
2017-Apr-29 05:30N 53°39' E 009°31'0 0.0
2017-Apr-29 05:00N 53°39' E 009°31'0 0.0
2017-Apr-29 04:30N 53°39' E 009°31'0 0.0
2017-Apr-29 04:01N 53°39' E 009°31'0 0.0
2017-Apr-29 03:30N 53°39' E 009°31'0 0.0
2017-Apr-29 03:00N 53°39' E 009°31'0 0.0
2017-Apr-29 02:30N 53°39' E 009°31'0 0.0
2017-Apr-29 02:00N 53°39' E 009°31'0 0.0
2017-Apr-29 01:31N 53°39' E 009°31'0 0.0
2017-Apr-29 01:00N 53°39' E 009°31'0 0.0
2017-Apr-29 00:31N 53°39' E 009°31'0 0.0
2017-Apr-29 00:00N 53°39' E 009°31'0 0.0
2017-Apr-28 23:31N 53°39' E 009°31'0 0.2
2017-Apr-28 23:00N 53°39' E 009°31'1 2.8
2017-Apr-28 22:29N 53°41' E 009°30'0 0.0
2017-Apr-28 22:00N 53°41' E 009°30'0 0.0
2017-Apr-28 21:29N 53°41' E 009°30'0 0.0
2017-Apr-28 20:59N 53°41' E 009°30'0 0.0
2017-Apr-28 20:29N 53°41' E 009°30'0 0.0
2017-Apr-28 20:00N 53°41' E 009°30'0 0.1
2017-Apr-28 19:29N 53°41' E 009°30'4 7.3
2017-Apr-28 19:01N 53°44' E 009°27'510.2
2017-Apr-28 18:30N 53°48' E 009°23'510.3
2017-Apr-28 18:00N 53°52' E 009°17'510.1
2017-Apr-28 17:30N 53°53' E 009°08'4 8.5
2017-Apr-28 17:00N 53°51' E 009°02'511.0
2017-Apr-28 16:30N 53°50' E 008°52'510.2
2017-Apr-28 16:00N 53°52' E 008°44'510.7
2017-Apr-28 15:30N 53°56' E 008°39'611.7
2017-Apr-28 15:00N 53°58' E 008°30'1211.6
2017-Apr-28 14:00N 53°59' E 008°10'3 5.9
2017-Apr-28 13:30N 54°01' E 008°06'3 6.5
2017-Apr-28 12:59N 54°02' E 008°12'0 0.1
2017-Apr-28 12:23N 54°02' E 008°12'0 0.0
2017-Apr-28 11:59N 54°02' E 008°12'0 0.0
2017-Apr-28 11:29N 54°02' E 008°12'0 0.0
2017-Apr-28 10:53N 54°02' E 008°12'0 0.0
2017-Apr-28 10:02N 54°02' E 008°12'0 0.1
2017-Apr-28 09:59N 54°02' E 008°12'0 0.0
2017-Apr-28 09:29N 54°02' E 008°12'0 0.0
2017-Apr-28 08:55N 54°02' E 008°12'0 0.0
2017-Apr-28 08:25N 54°02' E 008°12'0 0.0
2017-Apr-28 07:58N 54°02' E 008°12'0 0.0
2017-Apr-28 07:28N 54°02' E 008°12'0 0.2
2017-Apr-28 06:58N 54°02' E 008°12'0 0.1
2017-Apr-28 06:25N 54°02' E 008°12'0 0.0
2017-Apr-28 05:58N 54°02' E 008°12'0 0.0
2017-Apr-28 05:28N 54°02' E 008°11'0 0.0
2017-Apr-28 04:37N 54°02' E 008°11'0 0.0
2017-Apr-28 04:19N 54°02' E 008°11'0 0.1
2017-Apr-28 02:07N 54°02' E 008°12'0 0.1
2017-Apr-28 01:46N 54°02' E 008°12'0 0.1
2017-Apr-28 01:10N 54°02' E 008°12'0 0.0
2017-Apr-28 00:58N 54°02' E 008°12'0 0.0
2017-Apr-28 00:28N 54°02' E 008°12'0 0.0
2017-Apr-27 23:58N 54°02' E 008°12'0 0.0
2017-Apr-27 23:10N 54°02' E 008°12'0 0.0
2017-Apr-27 22:43N 54°02' E 008°12'0 0.0
2017-Apr-27 22:19N 54°02' E 008°12'0 0.0
2017-Apr-27 21:55N 54°02' E 008°12'0 0.0
2017-Apr-27 21:25N 54°02' E 008°12'0 0.5
2017-Apr-27 20:50N 54°02' E 008°11'2 6.1
2017-Apr-27 20:29N 54°02' E 008°08'0 0.1
2017-Apr-27 16:28N 54°02' E 008°07'0 0.1
2017-Apr-27 15:55N 54°02' E 008°07'180 9.9
2017-Apr-26 21:47N 52°31' E 003°47'413.5
2017-Apr-26 21:30N 52°31' E 003°54'713.9
2017-Apr-26 21:00N 52°31' E 004°05'713.8
2017-Apr-26 20:30N 52°31' E 004°16'612.8
2017-Apr-26 20:00N 52°29' E 004°26'510.5
2017-Apr-26 19:31N 52°28' E 004°35'1 2.2
2017-Apr-26 19:00N 52°28' E 004°36'3 6.0
2017-Apr-26 18:30N 52°27' E 004°41'5 9.6
2017-Apr-26 18:01N 52°25' E 004°48'2 4.8
2017-Apr-26 17:30N 52°24' E 004°52'0 0.0
2017-Apr-26 16:57N 52°24' E 004°52'0 0.0
2017-Apr-26 16:30N 52°24' E 004°52'0 0.0
2017-Apr-26 16:00N 52°24' E 004°52'0 0.0
2017-Apr-26 15:30N 52°24' E 004°52'0 0.0
2017-Apr-26 15:00N 52°24' E 004°52'0 0.0
2017-Apr-26 14:31N 52°24' E 004°52'0 0.0
2017-Apr-26 13:30N 52°24' E 004°52'0 0.0
2017-Apr-26 13:00N 52°24' E 004°52'0 0.0
2017-Apr-26 12:30N 52°24' E 004°52'0 0.0
2017-Apr-26 12:00N 52°24' E 004°52'0 0.0
2017-Apr-26 11:31N 52°24' E 004°52'0 0.0
2017-Apr-26 11:01N 52°24' E 004°52'0 0.0
2017-Apr-26 10:30N 52°24' E 004°52'0 0.0
2017-Apr-26 10:00N 52°24' E 004°52'0 0.0
2017-Apr-26 09:30N 52°24' E 004°52'0 0.0
2017-Apr-26 09:01N 52°24' E 004°52'0 0.0
2017-Apr-26 08:30N 52°24' E 004°52'0 0.0
2017-Apr-26 08:01N 52°24' E 004°52'0 0.0
2017-Apr-26 07:30N 52°24' E 004°52'0 0.0
2017-Apr-26 07:00N 52°24' E 004°52'0 0.0
2017-Apr-26 06:30N 52°24' E 004°52'0 0.0
2017-Apr-26 06:00N 52°24' E 004°52'0 0.0
2017-Apr-26 05:30N 52°24' E 004°52'0 0.0
2017-Apr-26 05:00N 52°24' E 004°52'0 0.0
2017-Apr-26 04:31N 52°24' E 004°52'0 0.0
2017-Apr-26 04:01N 52°24' E 004°52'1 1.4
2017-Apr-26 03:30N 52°25' E 004°52'4 8.1
2017-Apr-26 03:01N 52°26' E 004°45'5 9.1
2017-Apr-26 02:30N 52°28' E 004°38'1 2.9
2017-Apr-26 02:00N 52°28' E 004°36'1 1.7
2017-Apr-26 01:30N 52°28' E 004°35'3 5.7
2017-Apr-26 01:00N 52°28' E 004°30'4 7.8
2017-Apr-26 00:30N 52°29' E 004°24'510.1
2017-Apr-26 00:00N 52°29' E 004°15'712.8
2017-Apr-25 23:30N 52°28' E 004°05'712.9
2017-Apr-25 22:58N 52°26' E 003°54'7211.8
2017-Apr-25 16:50N 51°39' E 002°26'613.2
2017-Apr-25 16:24N 51°34' E 002°19'513.7
2017-Apr-25 16:00N 51°30' E 002°13'714.0
2017-Apr-25 15:30N 51°25' E 002°06'713.7
2017-Apr-25 15:00N 51°18' E 002°06'1313.5
2017-Apr-25 14:01N 51°09' E 001°50'714.6
2017-Apr-25 13:31N 51°04' E 001°42'815.2
2017-Apr-25 13:01N 50°59' E 001°33'6014.0
2017-Apr-25 08:43N 50°23' E 000°17'515.7
2017-Apr-25 08:24N 50°21' E 000°09'616.0
2017-Apr-25 08:00N 50°20' W 000°00'128 4.5
2017-Apr-24 03:40N 48°38' W 002°02'4 8.6
2017-Apr-24 03:13N 48°41' W 002°06'1 5.5
2017-Apr-24 02:57N 48°43' W 002°06'0 0.1
2017-Apr-24 02:27N 48°43' W 002°06'0 0.0
2017-Apr-24 02:00N 48°43' W 002°06'0 0.0
2017-Apr-24 01:30N 48°43' W 002°06'0 0.0
2017-Apr-24 00:51N 48°43' W 002°06'0 0.2
2017-Apr-24 00:15N 48°43' W 002°06'0 0.2
2017-Apr-23 23:51N 48°43' W 002°06'0 0.0
2017-Apr-23 22:48N 48°43' W 002°06'13 3.9
2017-Apr-23 19:29N 48°48' W 002°24'1412.1
2017-Apr-23 18:20N 48°60' W 002°35'412.5
2017-Apr-23 18:00N 49°03' W 002°38'712.7
2017-Apr-23 17:26N 49°09' W 002°44'613.7
2017-Apr-23 17:00N 49°10' W 002°53'714.1
2017-Apr-23 16:31N 49°08' W 003°03'714.5
2017-Apr-23 16:00N 49°07' W 003°14'714.8
2017-Apr-23 15:30N 49°07' W 003°26'815.0
2017-Apr-23 14:58N 49°06' W 003°38'1414.8
2017-Apr-23 14:01N 49°04' W 003°59'714.5
2017-Apr-23 13:31N 49°03' W 004°10'714.4
2017-Apr-23 13:00N 49°02' W 004°21'714.2
2017-Apr-23 12:30N 49°01' W 004°32'2813.6
2017-Apr-23 10:29N 48°53' W 005°12'60412.3
2017-Apr-21 09:17N 39°24' W 009°56'514.0
2017-Apr-21 08:58N 39°20' W 009°56'614.1
2017-Apr-21 08:30N 39°13' W 009°56'713.9
2017-Apr-21 08:00N 39°06' W 009°56'714.0
2017-Apr-21 07:30N 38°59' W 009°56'714.1
2017-Apr-21 07:00N 38°52' W 009°56'714.3
2017-Apr-21 06:30N 38°45' W 009°57'714.1
2017-Apr-21 06:00N 38°38' W 009°55'714.0
2017-Apr-21 05:30N 38°31' W 009°53'714.3
2017-Apr-21 05:01N 38°24' W 009°52'714.1
2017-Apr-21 04:30N 38°17' W 009°50'24211.6
2017-Apr-20 07:40N 35°58' W 005°41'314.1
2017-Apr-20 07:29N 35°58' W 005°38'613.0
2017-Apr-20 07:00N 35°59' W 005°31'510.3
2017-Apr-20 06:30N 36°01' W 005°25'3 6.2
2017-Apr-20 06:01N 36°02' W 005°21'2 4.2
2017-Apr-20 05:30N 36°03' W 005°19'2 4.5
2017-Apr-20 05:00N 36°03' W 005°16'4 7.6
2017-Apr-20 04:29N 36°03' W 005°11'  

Dump ship's entire track history